Terminal Aerodrome Forecast
Issued by NWS

Home | Current Version | Previous Version | Text Only | Print | Product List | Glossary On
Versions: 1 2 3 4 5 6 7 8 9 10 11 12 13 14 15 16 17 18 19 20 21 22 23 24
000
FTUS44 KLZK 211720
TAFBPK
TAF
KBPK 211720Z 2118/2218 20008KT P6SM BKN100 OVC250
     FM212100 16008KT P6SM VCTS BKN050CB OVC120
     FM220300 19004KT 4SM -RA BR BKN025 OVC040 PROB30 2203/2209 2SM
      TSRA BKN010 OVC025CB
     FM220900 VRB03KT 2SM -RA BR BKN007 OVC015
     FM221500 31006KT 2SM -DZ BR OVC003=

USA.gov is the U.S. government's official web portal to all federal, state and local government web resources and services.